sensor_id;sensor_type;location;lat;lon;timestamp;P1;durP1;ratioP1;P2;durP2;ratioP2
7375;SDS011;3728;42.266;24.944;2022-12-07T00:01:43;18.00;;;13.30;;
7375;SDS011;3728;42.266;24.944;2022-12-07T00:04:13;18.83;;;13.63;;
7375;SDS011;3728;42.266;24.944;2022-12-07T00:06:44;22.20;;;15.30;;
7375;SDS011;3728;42.266;24.944;2022-12-07T00:09:14;20.20;;;13.17;;
7375;SDS011;3728;42.266;24.944;2022-12-07T00:11:44;18.43;;;12.60;;
7375;SDS011;3728;42.266;24.944;2022-12-07T00:14:15;18.03;;;12.63;;
7375;SDS011;3728;42.266;24.944;2022-12-07T00:16:44;19.07;;;14.53;;
7375;SDS011;3728;42.266;24.944;2022-12-07T00:19:12;18.37;;;13.43;;
7375;SDS011;3728;42.266;24.944;2022-12-07T00:21:41;21.00;;;14.77;;
7375;SDS011;3728;42.266;24.944;2022-12-07T00:24:09;24.57;;;16.60;;
7375;SDS011;3728;42.266;24.944;2022-12-07T00:26:38;29.13;;;15.97;;
7375;SDS011;3728;42.266;24.944;2022-12-07T00:29:29;30.37;;;17.83;;
7375;SDS011;3728;42.266;24.944;2022-12-07T00:31:56;24.33;;;16.10;;
7375;SDS011;3728;42.266;24.944;2022-12-07T00:34:24;30.50;;;17.17;;
7375;SDS011;3728;42.266;24.944;2022-12-07T00:36:51;27.97;;;17.10;;
7375;SDS011;3728;42.266;24.944;2022-12-07T00:39:19;30.43;;;15.83;;
7375;SDS011;3728;42.266;24.944;2022-12-07T00:41:46;27.37;;;16.37;;
7375;SDS011;3728;42.266;24.944;2022-12-07T00:44:14;26.63;;;15.83;;
7375;SDS011;3728;42.266;24.944;2022-12-07T00:46:41;29.97;;;19.47;;
7375;SDS011;3728;42.266;24.944;2022-12-07T00:49:09;33.63;;;21.00;;
7375;SDS011;3728;42.266;24.944;2022-12-07T00:51:36;36.40;;;21.80;;
7375;SDS011;3728;42.266;24.944;2022-12-07T00:54:04;31.63;;;20.23;;
7375;SDS011;3728;42.266;24.944;2022-12-07T00:56:31;36.63;;;22.30;;
7375;SDS011;3728;42.266;24.944;2022-12-07T00:58:59;30.10;;;19.77;;
7375;SDS011;3728;42.266;24.944;2022-12-07T01:01:31;33.70;;;23.20;;
7375;SDS011;3728;42.266;24.944;2022-12-07T01:04:02;34.27;;;22.10;;
7375;SDS011;3728;42.266;24.944;2022-12-07T01:06:30;34.43;;;21.30;;
7375;SDS011;3728;42.266;24.944;2022-12-07T01:08:58;36.93;;;22.10;;
7375;SDS011;3728;42.266;24.944;2022-12-07T01:11:28;31.17;;;21.87;;
7375;SDS011;3728;42.266;24.944;2022-12-07T01:13:57;37.07;;;22.47;;
7375;SDS011;3728;42.266;24.944;2022-12-07T01:16:28;37.30;;;22.23;;
7375;SDS011;3728;42.266;24.944;2022-12-07T01:18:57;37.87;;;23.30;;
7375;SDS011;3728;42.266;24.944;2022-12-07T01:21:28;35.10;;;21.60;;
7375;SDS011;3728;42.266;24.944;2022-12-07T01:24:02;28.30;;;16.80;;
7375;SDS011;3728;42.266;24.944;2022-12-07T01:26:32;31.00;;;16.57;;
7375;SDS011;3728;42.266;24.944;2022-12-07T01:29:00;28.80;;;16.53;;
7375;SDS011;3728;42.266;24.944;2022-12-07T01:31:28;21.70;;;13.30;;
7375;SDS011;3728;42.266;24.944;2022-12-07T01:33:57;22.80;;;13.20;;
7375;SDS011;3728;42.266;24.944;2022-12-07T01:36:27;14.57;;;10.73;;
7375;SDS011;3728;42.266;24.944;2022-12-07T01:39:03;18.53;;;10.63;;
7375;SDS011;3728;42.266;24.944;2022-12-07T01:41:35;18.83;;;11.50;;
7375;SDS011;3728;42.266;24.944;2022-12-07T01:44:11;20.60;;;11.67;;
7375;SDS011;3728;42.266;24.944;2022-12-07T01:46:48;16.87;;;11.77;;
7375;SDS011;3728;42.266;24.944;2022-12-07T01:49:21;17.70;;;11.93;;
7375;SDS011;3728;42.266;24.944;2022-12-07T01:51:58;17.73;;;12.23;;
7375;SDS011;3728;42.266;24.944;2022-12-07T01:55:00;18.80;;;12.57;;
7375;SDS011;3728;42.266;24.944;2022-12-07T01:57:37;19.70;;;13.30;;
7375;SDS011;3728;42.266;24.944;2022-12-07T02:00:13;22.67;;;14.73;;
7375;SDS011;3728;42.266;24.944;2022-12-07T02:02:45;25.53;;;14.93;;
7375;SDS011;3728;42.266;24.944;2022-12-07T02:05:22;25.10;;;16.10;;
7375;SDS011;3728;42.266;24.944;2022-12-07T02:07:53;23.03;;;15.60;;
7375;SDS011;3728;42.266;24.944;2022-12-07T02:10:25;25.27;;;16.83;;
7375;SDS011;3728;42.266;24.944;2022-12-07T02:13:13;25.43;;;15.93;;
7375;SDS011;3728;42.266;24.944;2022-12-07T02:21:36;33.17;;;20.63;;
7375;SDS011;3728;42.266;24.944;2022-12-07T02:30:15;33.13;;;21.30;;
7375;SDS011;3728;42.266;24.944;2022-12-07T02:38:14;33.40;;;20.60;;
7375;SDS011;3728;42.266;24.944;2022-12-07T02:40:51;34.00;;;20.50;;
7375;SDS011;3728;42.266;24.944;2022-12-07T02:43:24;35.57;;;21.47;;
7375;SDS011;3728;42.266;24.944;2022-12-07T02:45:59;36.60;;;24.17;;
7375;SDS011;3728;42.266;24.944;2022-12-07T02:48:32;33.53;;;21.90;;
7375;SDS011;3728;42.266;24.944;2022-12-07T02:51:00;37.00;;;21.60;;
7375;SDS011;3728;42.266;24.944;2022-12-07T02:53:32;32.50;;;21.07;;
7375;SDS011;3728;42.266;24.944;2022-12-07T02:56:15;34.07;;;21.17;;
7375;SDS011;3728;42.266;24.944;2022-12-07T03:05:05;33.57;;;22.30;;
7375;SDS011;3728;42.266;24.944;2022-12-07T03:16:33;35.43;;;21.10;;
7375;SDS011;3728;42.266;24.944;2022-12-07T03:19:14;43.67;;;25.67;;
7375;SDS011;3728;42.266;24.944;2022-12-07T03:21:49;39.53;;;26.13;;
7375;SDS011;3728;42.266;24.944;2022-12-07T03:24:24;39.00;;;25.87;;
7375;SDS011;3728;42.266;24.944;2022-12-07T03:27:05;43.30;;;25.77;;
7375;SDS011;3728;42.266;24.944;2022-12-07T03:29:52;39.67;;;24.70;;
7375;SDS011;3728;42.266;24.944;2022-12-07T03:32:28;36.30;;;24.37;;
7375;SDS011;3728;42.266;24.944;2022-12-07T03:35:22;37.60;;;24.43;;
7375;SDS011;3728;42.266;24.944;2022-12-07T03:41:01;48.03;;;29.27;;
7375;SDS011;3728;42.266;24.944;2022-12-07T03:43:45;39.43;;;24.90;;
7375;SDS011;3728;42.266;24.944;2022-12-07T03:46:17;38.37;;;25.57;;
7375;SDS011;3728;42.266;24.944;2022-12-07T03:57:31;43.17;;;25.40;;
7375;SDS011;3728;42.266;24.944;2022-12-07T04:00:03;40.20;;;26.97;;
7375;SDS011;3728;42.266;24.944;2022-12-07T04:02:40;41.50;;;27.17;;
7375;SDS011;3728;42.266;24.944;2022-12-07T04:05:10;47.03;;;26.83;;
7375;SDS011;3728;42.266;24.944;2022-12-07T04:07:41;46.33;;;25.70;;
7375;SDS011;3728;42.266;24.944;2022-12-07T04:10:09;49.50;;;31.80;;
7375;SDS011;3728;42.266;24.944;2022-12-07T04:12:37;47.50;;;23.90;;
7375;SDS011;3728;42.266;24.944;2022-12-07T04:15:05;35.97;;;22.37;;
7375;SDS011;3728;42.266;24.944;2022-12-07T04:17:34;30.60;;;20.70;;
7375;SDS011;3728;42.266;24.944;2022-12-07T04:20:03;31.87;;;20.07;;
7375;SDS011;3728;42.266;24.944;2022-12-07T04:22:34;31.70;;;19.13;;
7375;SDS011;3728;42.266;24.944;2022-12-07T04:25:02;25.93;;;17.43;;
7375;SDS011;3728;42.266;24.944;2022-12-07T04:27:30;22.80;;;15.60;;
7375;SDS011;3728;42.266;24.944;2022-12-07T04:29:57;24.27;;;14.10;;
7375;SDS011;3728;42.266;24.944;2022-12-07T04:32:25;20.27;;;14.00;;
7375;SDS011;3728;42.266;24.944;2022-12-07T04:34:52;19.17;;;13.83;;
7375;SDS011;3728;42.266;24.944;2022-12-07T04:37:21;22.83;;;15.63;;
7375;SDS011;3728;42.266;24.944;2022-12-07T04:39:49;26.03;;;13.97;;
7375;SDS011;3728;42.266;24.944;2022-12-07T04:42:17;24.27;;;17.27;;
7375;SDS011;3728;42.266;24.944;2022-12-07T04:44:45;27.57;;;18.57;;
7375;SDS011;3728;42.266;24.944;2022-12-07T04:47:12;31.07;;;19.93;;
7375;SDS011;3728;42.266;24.944;2022-12-07T04:49:40;32.83;;;20.27;;
7375;SDS011;3728;42.266;24.944;2022-12-07T04:52:08;31.60;;;20.57;;
7375;SDS011;3728;42.266;24.944;2022-12-07T04:54:36;33.30;;;18.93;;
7375;SDS011;3728;42.266;24.944;2022-12-07T04:57:03;35.07;;;19.90;;
7375;SDS011;3728;42.266;24.944;2022-12-07T04:59:31;29.37;;;18.80;;
7375;SDS011;3728;42.266;24.944;2022-12-07T05:01:58;30.00;;;20.50;;
7375;SDS011;3728;42.266;24.944;2022-12-07T05:04:26;26.37;;;18.23;;
7375;SDS011;3728;42.266;24.944;2022-12-07T05:06:53;29.50;;;18.07;;
7375;SDS011;3728;42.266;24.944;2022-12-07T05:09:21;22.50;;;15.47;;
7375;SDS011;3728;42.266;24.944;2022-12-07T05:11:49;24.07;;;15.73;;
7375;SDS011;3728;42.266;24.944;2022-12-07T05:14:17;29.17;;;15.40;;
7375;SDS011;3728;42.266;24.944;2022-12-07T05:16:47;24.83;;;14.93;;
7375;SDS011;3728;42.266;24.944;2022-12-07T05:19:17;22.67;;;14.00;;
7375;SDS011;3728;42.266;24.944;2022-12-07T05:21:46;21.77;;;13.93;;
7375;SDS011;3728;42.266;24.944;2022-12-07T05:24:15;20.67;;;13.63;;
7375;SDS011;3728;42.266;24.944;2022-12-07T05:26:43;21.47;;;13.00;;
7375;SDS011;3728;42.266;24.944;2022-12-07T05:29:12;21.90;;;12.90;;
7375;SDS011;3728;42.266;24.944;2022-12-07T05:31:44;21.30;;;14.43;;
7375;SDS011;3728;42.266;24.944;2022-12-07T05:34:12;24.43;;;14.13;;
7375;SDS011;3728;42.266;24.944;2022-12-07T05:36:40;29.90;;;15.27;;
7375;SDS011;3728;42.266;24.944;2022-12-07T05:39:07;30.33;;;17.27;;
7375;SDS011;3728;42.266;24.944;2022-12-07T05:41:35;28.93;;;16.67;;
7375;SDS011;3728;42.266;24.944;2022-12-07T05:44:21;34.80;;;20.37;;
7375;SDS011;3728;42.266;24.944;2022-12-07T05:46:48;33.13;;;21.40;;
7375;SDS011;3728;42.266;24.944;2022-12-07T05:49:16;35.87;;;20.83;;
7375;SDS011;3728;42.266;24.944;2022-12-07T05:51:43;37.43;;;21.83;;
7375;SDS011;3728;42.266;24.944;2022-12-07T05:54:11;48.37;;;22.00;;
7375;SDS011;3728;42.266;24.944;2022-12-07T05:56:38;40.47;;;23.13;;
7375;SDS011;3728;42.266;24.944;2022-12-07T05:59:07;40.53;;;23.97;;
7375;SDS011;3728;42.266;24.944;2022-12-07T06:01:56;37.07;;;23.17;;
7375;SDS011;3728;42.266;24.944;2022-12-07T06:04:34;36.03;;;22.93;;
7375;SDS011;3728;42.266;24.944;2022-12-07T06:07:06;34.77;;;22.53;;
7375;SDS011;3728;42.266;24.944;2022-12-07T06:09:36;45.03;;;23.33;;
7375;SDS011;3728;42.266;24.944;2022-12-07T06:12:05;41.37;;;25.83;;
7375;SDS011;3728;42.266;24.944;2022-12-07T06:14:52;46.13;;;29.40;;
7375;SDS011;3728;42.266;24.944;2022-12-07T06:17:19;53.70;;;34.07;;
7375;SDS011;3728;42.266;24.944;2022-12-07T06:19:48;56.30;;;37.50;;
7375;SDS011;3728;42.266;24.944;2022-12-07T06:22:15;67.10;;;44.87;;
7375;SDS011;3728;42.266;24.944;2022-12-07T06:24:43;75.43;;;46.73;;
7375;SDS011;3728;42.266;24.944;2022-12-07T06:27:11;46.67;;;30.23;;
7375;SDS011;3728;42.266;24.944;2022-12-07T06:29:39;38.00;;;26.53;;
7375;SDS011;3728;42.266;24.944;2022-12-07T06:32:06;48.70;;;28.53;;
7375;SDS011;3728;42.266;24.944;2022-12-07T06:34:34;42.17;;;25.63;;
7375;SDS011;3728;42.266;24.944;2022-12-07T06:37:05;37.63;;;25.03;;
7375;SDS011;3728;42.266;24.944;2022-12-07T06:39:33;41.43;;;27.13;;
7375;SDS011;3728;42.266;24.944;2022-12-07T06:42:00;39.23;;;25.70;;
7375;SDS011;3728;42.266;24.944;2022-12-07T06:44:29;43.57;;;26.57;;
7375;SDS011;3728;42.266;24.944;2022-12-07T06:46:56;42.97;;;27.53;;
7375;SDS011;3728;42.266;24.944;2022-12-07T06:49:44;46.70;;;29.93;;
7375;SDS011;3728;42.266;24.944;2022-12-07T06:52:12;53.13;;;37.50;;
7375;SDS011;3728;42.266;24.944;2022-12-07T06:54:40;54.40;;;32.40;;
7375;SDS011;3728;42.266;24.944;2022-12-07T06:57:08;54.20;;;34.97;;
7375;SDS011;3728;42.266;24.944;2022-12-07T06:59:35;55.67;;;35.23;;
7375;SDS011;3728;42.266;24.944;2022-12-07T07:02:04;48.87;;;32.13;;
7375;SDS011;3728;42.266;24.944;2022-12-07T07:04:32;48.23;;;30.50;;
7375;SDS011;3728;42.266;24.944;2022-12-07T07:06:59;62.53;;;37.17;;
7375;SDS011;3728;42.266;24.944;2022-12-07T07:09:27;108.43;;;56.63;;
7375;SDS011;3728;42.266;24.944;2022-12-07T07:11:54;50.70;;;32.40;;
7375;SDS011;3728;42.266;24.944;2022-12-07T07:14:22;49.80;;;30.33;;
7375;SDS011;3728;42.266;24.944;2022-12-07T07:16:49;51.37;;;32.40;;
7375;SDS011;3728;42.266;24.944;2022-12-07T07:19:17;59.63;;;34.13;;
7375;SDS011;3728;42.266;24.944;2022-12-07T07:21:44;59.20;;;36.60;;
7375;SDS011;3728;42.266;24.944;2022-12-07T07:24:12;59.83;;;36.47;;
7375;SDS011;3728;42.266;24.944;2022-12-07T07:26:39;76.37;;;51.00;;
7375;SDS011;3728;42.266;24.944;2022-12-07T07:29:07;65.97;;;45.93;;
7375;SDS011;3728;42.266;24.944;2022-12-07T07:31:34;51.73;;;31.50;;
7375;SDS011;3728;42.266;24.944;2022-12-07T07:34:03;44.97;;;29.47;;
7375;SDS011;3728;42.266;24.944;2022-12-07T07:36:32;68.40;;;37.30;;
7375;SDS011;3728;42.266;24.944;2022-12-07T07:39:00;51.37;;;30.57;;
7375;SDS011;3728;42.266;24.944;2022-12-07T07:41:27;53.80;;;32.37;;
7375;SDS011;3728;42.266;24.944;2022-12-07T07:43:55;54.17;;;33.23;;
7375;SDS011;3728;42.266;24.944;2022-12-07T07:46:23;52.63;;;36.97;;
7375;SDS011;3728;42.266;24.944;2022-12-07T07:48:51;60.03;;;33.57;;
7375;SDS011;3728;42.266;24.944;2022-12-07T07:51:18;50.33;;;30.10;;
7375;SDS011;3728;42.266;24.944;2022-12-07T07:53:45;47.47;;;30.30;;
7375;SDS011;3728;42.266;24.944;2022-12-07T07:56:13;46.90;;;31.10;;
7375;SDS011;3728;42.266;24.944;2022-12-07T07:58:40;50.37;;;29.23;;
7375;SDS011;3728;42.266;24.944;2022-12-07T08:01:08;42.33;;;27.30;;
7375;SDS011;3728;42.266;24.944;2022-12-07T08:03:36;45.37;;;28.33;;
7375;SDS011;3728;42.266;24.944;2022-12-07T08:06:03;48.47;;;29.43;;
7375;SDS011;3728;42.266;24.944;2022-12-07T08:08:31;48.47;;;28.83;;
7375;SDS011;3728;42.266;24.944;2022-12-07T08:10:59;52.03;;;31.63;;
7375;SDS011;3728;42.266;24.944;2022-12-07T08:13:27;46.53;;;28.67;;
7375;SDS011;3728;42.266;24.944;2022-12-07T08:15:57;56.73;;;30.03;;
7375;SDS011;3728;42.266;24.944;2022-12-07T08:18:27;48.17;;;30.83;;
7375;SDS011;3728;42.266;24.944;2022-12-07T08:20:58;54.03;;;35.00;;
7375;SDS011;3728;42.266;24.944;2022-12-07T08:23:28;45.23;;;30.47;;
7375;SDS011;3728;42.266;24.944;2022-12-07T08:26:08;46.30;;;29.63;;
7375;SDS011;3728;42.266;24.944;2022-12-07T08:28:38;57.40;;;32.33;;
7375;SDS011;3728;42.266;24.944;2022-12-07T08:31:08;54.83;;;32.97;;
7375;SDS011;3728;42.266;24.944;2022-12-07T08:33:39;61.63;;;32.50;;
7375;SDS011;3728;42.266;24.944;2022-12-07T08:36:10;60.00;;;35.57;;
7375;SDS011;3728;42.266;24.944;2022-12-07T08:38:40;60.30;;;35.97;;
7375;SDS011;3728;42.266;24.944;2022-12-07T08:41:28;53.70;;;32.97;;
7375;SDS011;3728;42.266;24.944;2022-12-07T08:43:57;51.50;;;31.40;;
7375;SDS011;3728;42.266;24.944;2022-12-07T08:46:25;42.53;;;29.90;;
7375;SDS011;3728;42.266;24.944;2022-12-07T08:49:03;45.90;;;30.00;;
7375;SDS011;3728;42.266;24.944;2022-12-07T08:51:39;52.80;;;28.23;;
7375;SDS011;3728;42.266;24.944;2022-12-07T08:54:08;40.23;;;27.03;;
7375;SDS011;3728;42.266;24.944;2022-12-07T08:56:39;45.77;;;27.40;;
7375;SDS011;3728;42.266;24.944;2022-12-07T08:59:07;41.07;;;25.40;;
7375;SDS011;3728;42.266;24.944;2022-12-07T09:01:35;38.03;;;25.07;;
7375;SDS011;3728;42.266;24.944;2022-12-07T09:04:03;41.57;;;25.00;;
7375;SDS011;3728;42.266;24.944;2022-12-07T09:06:31;38.23;;;25.17;;
7375;SDS011;3728;42.266;24.944;2022-12-07T09:08:59;37.43;;;24.47;;
7375;SDS011;3728;42.266;24.944;2022-12-07T09:11:29;45.00;;;25.47;;
7375;SDS011;3728;42.266;24.944;2022-12-07T09:13:57;37.83;;;24.50;;
7375;SDS011;3728;42.266;24.944;2022-12-07T09:16:24;33.93;;;24.03;;
7375;SDS011;3728;42.266;24.944;2022-12-07T09:18:52;34.13;;;23.23;;
7375;SDS011;3728;42.266;24.944;2022-12-07T09:21:20;31.37;;;22.30;;
7375;SDS011;3728;42.266;24.944;2022-12-07T09:23:47;36.13;;;23.43;;
7375;SDS011;3728;42.266;24.944;2022-12-07T09:26:15;39.43;;;24.17;;
7375;SDS011;3728;42.266;24.944;2022-12-07T09:28:42;47.63;;;24.27;;
7375;SDS011;3728;42.266;24.944;2022-12-07T09:31:10;37.10;;;23.23;;
7375;SDS011;3728;42.266;24.944;2022-12-07T09:33:58;33.20;;;21.53;;
7375;SDS011;3728;42.266;24.944;2022-12-07T09:36:27;35.53;;;23.43;;
7375;SDS011;3728;42.266;24.944;2022-12-07T09:38:55;34.07;;;22.63;;
7375;SDS011;3728;42.266;24.944;2022-12-07T09:41:23;28.27;;;20.83;;
7375;SDS011;3728;42.266;24.944;2022-12-07T09:43:53;28.63;;;20.97;;
7375;SDS011;3728;42.266;24.944;2022-12-07T09:46:33;31.77;;;21.50;;
7375;SDS011;3728;42.266;24.944;2022-12-07T09:49:05;27.20;;;19.43;;
7375;SDS011;3728;42.266;24.944;2022-12-07T09:51:39;31.20;;;21.67;;
7375;SDS011;3728;42.266;24.944;2022-12-07T09:54:07;27.53;;;20.13;;
7375;SDS011;3728;42.266;24.944;2022-12-07T09:56:40;26.43;;;19.20;;
7375;SDS011;3728;42.266;24.944;2022-12-07T09:59:16;24.83;;;18.00;;
7375;SDS011;3728;42.266;24.944;2022-12-07T10:01:47;28.90;;;19.77;;
7375;SDS011;3728;42.266;24.944;2022-12-07T10:04:21;22.13;;;16.77;;
7375;SDS011;3728;42.266;24.944;2022-12-07T10:07:06;24.17;;;16.70;;
7375;SDS011;3728;42.266;24.944;2022-12-07T10:09:50;22.20;;;16.77;;
7375;SDS011;3728;42.266;24.944;2022-12-07T10:12:27;19.57;;;15.60;;
7375;SDS011;3728;42.266;24.944;2022-12-07T10:15:01;30.63;;;21.63;;
7375;SDS011;3728;42.266;24.944;2022-12-07T10:17:41;31.57;;;22.13;;
7375;SDS011;3728;42.266;24.944;2022-12-07T10:20:24;31.80;;;24.10;;
7375;SDS011;3728;42.266;24.944;2022-12-07T10:23:00;22.33;;;17.10;;
7375;SDS011;3728;42.266;24.944;2022-12-07T10:25:33;23.73;;;17.47;;
7375;SDS011;3728;42.266;24.944;2022-12-07T10:30:46;20.60;;;15.70;;
7375;SDS011;3728;42.266;24.944;2022-12-07T10:33:33;23.03;;;17.13;;
7375;SDS011;3728;42.266;24.944;2022-12-07T10:38:52;21.63;;;15.40;;
7375;SDS011;3728;42.266;24.944;2022-12-07T10:41:28;17.47;;;13.13;;
7375;SDS011;3728;42.266;24.944;2022-12-07T10:43:57;18.93;;;12.97;;
7375;SDS011;3728;42.266;24.944;2022-12-07T10:55:22;31.87;;;18.17;;
7375;SDS011;3728;42.266;24.944;2022-12-07T11:06:39;28.13;;;16.90;;
7375;SDS011;3728;42.266;24.944;2022-12-07T11:24:48;20.30;;;13.73;;
7375;SDS011;3728;42.266;24.944;2022-12-07T11:36:59;19.17;;;14.07;;
7375;SDS011;3728;42.266;24.944;2022-12-07T11:39:35;18.23;;;13.73;;
7375;SDS011;3728;42.266;24.944;2022-12-07T11:42:13;27.10;;;14.67;;
7375;SDS011;3728;42.266;24.944;2022-12-07T11:50:57;20.23;;;13.30;;
7375;SDS011;3728;42.266;24.944;2022-12-07T11:56:26;20.03;;;13.77;;
7375;SDS011;3728;42.266;24.944;2022-12-07T11:58:57;18.90;;;13.80;;
7375;SDS011;3728;42.266;24.944;2022-12-07T12:02:11;18.20;;;13.77;;
7375;SDS011;3728;42.266;24.944;2022-12-07T12:11:16;21.37;;;16.00;;
7375;SDS011;3728;42.266;24.944;2022-12-07T12:14:01;17.63;;;13.97;;
7375;SDS011;3728;42.266;24.944;2022-12-07T12:17:17;20.27;;;15.47;;
7375;SDS011;3728;42.266;24.944;2022-12-07T12:23:07;30.33;;;18.03;;
7375;SDS011;3728;42.266;24.944;2022-12-07T12:25:50;40.67;;;18.03;;
7375;SDS011;3728;42.266;24.944;2022-12-07T12:28:29;28.43;;;16.60;;
7375;SDS011;3728;42.266;24.944;2022-12-07T12:33:52;23.37;;;15.70;;
7375;SDS011;3728;42.266;24.944;2022-12-07T12:36:26;21.27;;;15.57;;
7375;SDS011;3728;42.266;24.944;2022-12-07T12:52:45;23.13;;;15.10;;
7375;SDS011;3728;42.266;24.944;2022-12-07T12:55:17;21.70;;;14.93;;
7375;SDS011;3728;42.266;24.944;2022-12-07T12:58:25;21.47;;;15.57;;
7375;SDS011;3728;42.266;24.944;2022-12-07T13:00:45;27.07;;;18.90;;
7375;SDS011;3728;42.266;24.944;2022-12-07T13:03:35;24.63;;;17.07;;
7375;SDS011;3728;42.266;24.944;2022-12-07T13:06:17;22.77;;;16.30;;
7375;SDS011;3728;42.266;24.944;2022-12-07T13:08:53;24.87;;;16.13;;
7375;SDS011;3728;42.266;24.944;2022-12-07T13:11:45;28.80;;;17.07;;
7375;SDS011;3728;42.266;24.944;2022-12-07T13:17:11;25.20;;;16.00;;
7375;SDS011;3728;42.266;24.944;2022-12-07T13:20:00;43.80;;;16.83;;
7375;SDS011;3728;42.266;24.944;2022-12-07T13:25:08;23.50;;;15.00;;
7375;SDS011;3728;42.266;24.944;2022-12-07T13:28:16;21.67;;;14.40;;
7375;SDS011;3728;42.266;24.944;2022-12-07T13:33:57;25.47;;;15.73;;
7375;SDS011;3728;42.266;24.944;2022-12-07T13:36:29;21.10;;;14.97;;
7375;SDS011;3728;42.266;24.944;2022-12-07T13:41:49;34.87;;;15.33;;
7375;SDS011;3728;42.266;24.944;2022-12-07T13:44:26;20.80;;;15.20;;
7375;SDS011;3728;42.266;24.944;2022-12-07T13:47:28;26.00;;;15.03;;
7375;SDS011;3728;42.266;24.944;2022-12-07T13:52:54;31.97;;;15.73;;
7375;SDS011;3728;42.266;24.944;2022-12-07T13:55:28;31.03;;;16.40;;
7375;SDS011;3728;42.266;24.944;2022-12-07T13:57:56;25.53;;;15.53;;
7375;SDS011;3728;42.266;24.944;2022-12-07T14:00:25;23.33;;;15.77;;
7375;SDS011;3728;42.266;24.944;2022-12-07T14:03:04;24.70;;;14.93;;
7375;SDS011;3728;42.266;24.944;2022-12-07T14:08:42;39.97;;;15.73;;
7375;SDS011;3728;42.266;24.944;2022-12-07T14:11:17;32.63;;;15.93;;
7375;SDS011;3728;42.266;24.944;2022-12-07T14:17:02;24.10;;;14.73;;
7375;SDS011;3728;42.266;24.944;2022-12-07T14:19:47;83.43;;;20.80;;
7375;SDS011;3728;42.266;24.944;2022-12-07T14:22:36;30.83;;;16.20;;
7375;SDS011;3728;42.266;24.944;2022-12-07T14:27:48;97.23;;;41.90;;
7375;SDS011;3728;42.266;24.944;2022-12-07T14:30:41;83.57;;;23.10;;
7375;SDS011;3728;42.266;24.944;2022-12-07T14:33:13;33.63;;;17.23;;
7375;SDS011;3728;42.266;24.944;2022-12-07T14:36:03;40.80;;;16.83;;
7375;SDS011;3728;42.266;24.944;2022-12-07T14:38:32;30.93;;;16.13;;
7375;SDS011;3728;42.266;24.944;2022-12-07T14:41:01;39.37;;;19.60;;
7375;SDS011;3728;42.266;24.944;2022-12-07T14:43:50;36.73;;;20.37;;
7375;SDS011;3728;42.266;24.944;2022-12-07T14:46:38;46.20;;;22.23;;
7375;SDS011;3728;42.266;24.944;2022-12-07T14:49:05;39.60;;;19.73;;
7375;SDS011;3728;42.266;24.944;2022-12-07T14:51:54;41.93;;;19.43;;
7375;SDS011;3728;42.266;24.944;2022-12-07T14:54:41;43.97;;;17.53;;
7375;SDS011;3728;42.266;24.944;2022-12-07T14:57:10;44.77;;;17.83;;
7375;SDS011;3728;42.266;24.944;2022-12-07T14:59:59;48.20;;;19.37;;
7375;SDS011;3728;42.266;24.944;2022-12-07T15:02:27;68.67;;;30.07;;
7375;SDS011;3728;42.266;24.944;2022-12-07T15:04:55;88.07;;;41.07;;
7375;SDS011;3728;42.266;24.944;2022-12-07T15:07:23;73.77;;;33.83;;
7375;SDS011;3728;42.266;24.944;2022-12-07T15:09:55;78.33;;;39.10;;
7375;SDS011;3728;42.266;24.944;2022-12-07T15:12:24;91.40;;;50.63;;
7375;SDS011;3728;42.266;24.944;2022-12-07T15:14:53;85.90;;;45.47;;
7375;SDS011;3728;42.266;24.944;2022-12-07T15:17:21;104.47;;;54.50;;
7375;SDS011;3728;42.266;24.944;2022-12-07T15:19:57;101.90;;;55.50;;
7375;SDS011;3728;42.266;24.944;2022-12-07T15:22:25;97.30;;;53.20;;
7375;SDS011;3728;42.266;24.944;2022-12-07T15:24:59;107.70;;;62.70;;
7375;SDS011;3728;42.266;24.944;2022-12-07T15:27:28;103.30;;;63.40;;
7375;SDS011;3728;42.266;24.944;2022-12-07T15:29:57;102.43;;;59.90;;
7375;SDS011;3728;42.266;24.944;2022-12-07T15:32:25;106.77;;;60.57;;
7375;SDS011;3728;42.266;24.944;2022-12-07T15:34:53;107.87;;;61.90;;
7375;SDS011;3728;42.266;24.944;2022-12-07T15:37:21;141.70;;;72.67;;
7375;SDS011;3728;42.266;24.944;2022-12-07T15:39:49;160.00;;;73.77;;
7375;SDS011;3728;42.266;24.944;2022-12-07T15:42:17;173.27;;;71.93;;
7375;SDS011;3728;42.266;24.944;2022-12-07T15:44:45;162.53;;;72.67;;
7375;SDS011;3728;42.266;24.944;2022-12-07T15:47:34;138.03;;;65.00;;
7375;SDS011;3728;42.266;24.944;2022-12-07T15:50:24;129.77;;;65.70;;
7375;SDS011;3728;42.266;24.944;2022-12-07T15:52:52;139.97;;;63.43;;
7375;SDS011;3728;42.266;24.944;2022-12-07T15:55:30;122.00;;;61.40;;
7375;SDS011;3728;42.266;24.944;2022-12-07T15:57:57;129.87;;;60.40;;
7375;SDS011;3728;42.266;24.944;2022-12-07T16:00:26;128.33;;;64.27;;
7375;SDS011;3728;42.266;24.944;2022-12-07T16:02:54;142.90;;;68.00;;
7375;SDS011;3728;42.266;24.944;2022-12-07T16:05:21;144.90;;;73.77;;
7375;SDS011;3728;42.266;24.944;2022-12-07T16:07:49;161.33;;;91.30;;
7375;SDS011;3728;42.266;24.944;2022-12-07T16:10:17;155.47;;;81.10;;
7375;SDS011;3728;42.266;24.944;2022-12-07T16:12:46;208.10;;;106.80;;
7375;SDS011;3728;42.266;24.944;2022-12-07T16:15:13;220.43;;;114.20;;
7375;SDS011;3728;42.266;24.944;2022-12-07T16:17:49;254.10;;;111.20;;
7375;SDS011;3728;42.266;24.944;2022-12-07T16:20:18;257.30;;;120.03;;
7375;SDS011;3728;42.266;24.944;2022-12-07T16:22:46;252.37;;;118.70;;
7375;SDS011;3728;42.266;24.944;2022-12-07T16:25:19;233.73;;;122.63;;
7375;SDS011;3728;42.266;24.944;2022-12-07T16:27:46;211.83;;;115.77;;
7375;SDS011;3728;42.266;24.944;2022-12-07T16:30:15;194.70;;;104.33;;
7375;SDS011;3728;42.266;24.944;2022-12-07T16:32:47;191.07;;;93.20;;
7375;SDS011;3728;42.266;24.944;2022-12-07T16:35:16;163.23;;;91.20;;
7375;SDS011;3728;42.266;24.944;2022-12-07T16:37:44;172.20;;;91.87;;
7375;SDS011;3728;42.266;24.944;2022-12-07T16:40:13;157.17;;;85.20;;
7375;SDS011;3728;42.266;24.944;2022-12-07T16:42:42;159.00;;;82.93;;
7375;SDS011;3728;42.266;24.944;2022-12-07T16:45:20;152.83;;;81.33;;
7375;SDS011;3728;42.266;24.944;2022-12-07T16:47:48;158.30;;;82.93;;
7375;SDS011;3728;42.266;24.944;2022-12-07T16:50:15;148.27;;;81.13;;
7375;SDS011;3728;42.266;24.944;2022-12-07T16:52:43;172.33;;;89.00;;
7375;SDS011;3728;42.266;24.944;2022-12-07T16:55:12;168.20;;;91.80;;
7375;SDS011;3728;42.266;24.944;2022-12-07T16:57:39;163.80;;;87.23;;
7375;SDS011;3728;42.266;24.944;2022-12-07T17:00:10;177.57;;;100.53;;
7375;SDS011;3728;42.266;24.944;2022-12-07T17:02:43;185.80;;;102.83;;
7375;SDS011;3728;42.266;24.944;2022-12-07T17:05:10;193.83;;;107.40;;
7375;SDS011;3728;42.266;24.944;2022-12-07T17:07:38;182.10;;;106.37;;
7375;SDS011;3728;42.266;24.944;2022-12-07T17:10:06;181.33;;;98.67;;
7375;SDS011;3728;42.266;24.944;2022-12-07T17:12:34;251.00;;;133.27;;
7375;SDS011;3728;42.266;24.944;2022-12-07T17:15:02;212.43;;;119.00;;
7375;SDS011;3728;42.266;24.944;2022-12-07T17:17:53;223.10;;;124.77;;
7375;SDS011;3728;42.266;24.944;2022-12-07T17:20:24;255.70;;;131.47;;
7375;SDS011;3728;42.266;24.944;2022-12-07T17:22:53;253.63;;;135.80;;
7375;SDS011;3728;42.266;24.944;2022-12-07T17:25:22;285.67;;;146.77;;
7375;SDS011;3728;42.266;24.944;2022-12-07T17:27:51;282.87;;;147.83;;
7375;SDS011;3728;42.266;24.944;2022-12-07T17:30:19;275.97;;;143.87;;
7375;SDS011;3728;42.266;24.944;2022-12-07T17:32:47;264.57;;;137.83;;